メインページ
METAR-TAF:

METAR-TAF

空港 :

ラバト=サレ空港

ラバト, モロッコ

緯度: 34-03N, 経度: 006-46W, 海抜: 84m

現時点の気象観測

当レポートは9分前の20:30(UTC)に作成
無風
気温 20°C
湿度 83%
気圧 1014 hPa
視程10km以上
1,500メートル以下は雲なし、積乱雲なし

METAR: GMME 172030Z 00000KT CAVOK 20/17 Q1014 NOSIG

時間: 21:39 (20:39 UTC)

予報

当レポートは3時間39分前の17:00(UTC)に作成
予報は17日の 18時(UTC)から 18日の 24時(UTC)まで有効
の風 14kt
視程10km以上
1,500メートル以下は雲なし、積乱雲なし
17日の 20時(UTC)から 18日の 06時(UTC)まで一時的に
変向風 2kt
視程: 7000m
高度1000ftの千切れ雲あり
確率 30% :
18日の 02時(UTC)から 18日の 05時(UTC)まで一時的に
の風 5kt
視程: 3000m
18日の 06時(UTC)から 18日の 12時(UTC)まで徐々に
西の風 10kt

TAF: GMME 171700Z 1718/1824 36014KT CAVOK TEMPO 1720/1806 VRB02KT 7000 BKN010 PROB30 TEMPO 1802/1805 18005KT 3000 BR BECMG 1806/1812 26010KT

4,000以上の空港の気象観測と天気予報(METAR報とTAF報)

利用可能な観測所は地図上に黄色い丸と赤い丸で示す。

丸の上にカーソルを重ねると観測所名を参照できる。

次にクリックすると気象観測と天気予報を参照できる。

マップの切り替え:黒色「×」印の緑ボタンをクリックして拡大、「-」印の緑ボタンをクリックして縮小、緑色の三角印をクリックして隣りの地図に切り替え


METAR-TAF: